sensor_id;sensor_type;location;lat;lon;timestamp;P1;durP1;ratioP1;P2;durP2;ratioP2
7831;SDS011;3961;42.058;25.586;2022-11-18T00:01:05;23.70;;;17.70;;
7831;SDS011;3961;42.058;25.586;2022-11-18T00:03:38;22.33;;;18.83;;
7831;SDS011;3961;42.058;25.586;2022-11-18T00:06:04;24.67;;;19.10;;
7831;SDS011;3961;42.058;25.586;2022-11-18T00:08:32;27.57;;;19.30;;
7831;SDS011;3961;42.058;25.586;2022-11-18T00:10:58;29.67;;;21.53;;
7831;SDS011;3961;42.058;25.586;2022-11-18T00:13:29;35.80;;;21.63;;
7831;SDS011;3961;42.058;25.586;2022-11-18T00:16:13;27.53;;;19.70;;
7831;SDS011;3961;42.058;25.586;2022-11-18T00:18:38;23.80;;;19.27;;
7831;SDS011;3961;42.058;25.586;2022-11-18T00:21:05;30.50;;;22.77;;
7831;SDS011;3961;42.058;25.586;2022-11-18T00:23:35;30.27;;;22.23;;
7831;SDS011;3961;42.058;25.586;2022-11-18T00:26:05;28.77;;;21.07;;
7831;SDS011;3961;42.058;25.586;2022-11-18T00:28:33;34.97;;;23.33;;
7831;SDS011;3961;42.058;25.586;2022-11-18T00:31:03;24.93;;;19.77;;
7831;SDS011;3961;42.058;25.586;2022-11-18T00:33:33;29.47;;;21.17;;
7831;SDS011;3961;42.058;25.586;2022-11-18T00:35:58;28.17;;;20.93;;
7831;SDS011;3961;42.058;25.586;2022-11-18T00:38:24;27.40;;;20.27;;
7831;SDS011;3961;42.058;25.586;2022-11-18T00:43:33;29.97;;;21.20;;
7831;SDS011;3961;42.058;25.586;2022-11-18T00:45:59;29.23;;;21.43;;
7831;SDS011;3961;42.058;25.586;2022-11-18T00:48:25;26.60;;;20.70;;
7831;SDS011;3961;42.058;25.586;2022-11-18T00:50:53;31.57;;;22.60;;
7831;SDS011;3961;42.058;25.586;2022-11-18T00:53:23;30.13;;;21.57;;
7831;SDS011;3961;42.058;25.586;2022-11-18T00:55:50;37.33;;;23.77;;
7831;SDS011;3961;42.058;25.586;2022-11-18T00:58:17;33.13;;;20.87;;
7831;SDS011;3961;42.058;25.586;2022-11-18T01:00:44;41.90;;;26.00;;
7831;SDS011;3961;42.058;25.586;2022-11-18T01:03:12;54.00;;;26.10;;
7831;SDS011;3961;42.058;25.586;2022-11-18T01:05:38;47.80;;;27.20;;
7831;SDS011;3961;42.058;25.586;2022-11-18T01:08:04;69.40;;;27.23;;
7831;SDS011;3961;42.058;25.586;2022-11-18T01:10:31;98.53;;;28.60;;
7831;SDS011;3961;42.058;25.586;2022-11-18T01:12:56;87.43;;;28.73;;
7831;SDS011;3961;42.058;25.586;2022-11-18T01:15:41;51.47;;;24.57;;
7831;SDS011;3961;42.058;25.586;2022-11-18T01:18:08;46.90;;;22.73;;
7831;SDS011;3961;42.058;25.586;2022-11-18T01:20:34;69.57;;;25.37;;
7831;SDS011;3961;42.058;25.586;2022-11-18T01:23:00;57.73;;;23.90;;
7831;SDS011;3961;42.058;25.586;2022-11-18T01:25:26;43.53;;;23.47;;
7831;SDS011;3961;42.058;25.586;2022-11-18T01:27:52;52.63;;;22.57;;
7831;SDS011;3961;42.058;25.586;2022-11-18T01:30:17;56.40;;;19.53;;
7831;SDS011;3961;42.058;25.586;2022-11-18T01:32:43;32.53;;;19.97;;
7831;SDS011;3961;42.058;25.586;2022-11-18T01:35:09;59.80;;;22.17;;
7831;SDS011;3961;42.058;25.586;2022-11-18T01:37:36;28.43;;;18.10;;
7831;SDS011;3961;42.058;25.586;2022-11-18T01:40:02;34.93;;;18.67;;
7831;SDS011;3961;42.058;25.586;2022-11-18T01:42:28;36.63;;;18.40;;
7831;SDS011;3961;42.058;25.586;2022-11-18T01:45:02;26.93;;;15.67;;
7831;SDS011;3961;42.058;25.586;2022-11-18T01:47:56;49.27;;;21.73;;
7831;SDS011;3961;42.058;25.586;2022-11-18T01:50:46;52.70;;;19.20;;
7831;SDS011;3961;42.058;25.586;2022-11-18T01:53:22;49.13;;;19.50;;
7831;SDS011;3961;42.058;25.586;2022-11-18T01:55:51;81.07;;;22.43;;
7831;SDS011;3961;42.058;25.586;2022-11-18T01:58:53;69.23;;;21.77;;
7831;SDS011;3961;42.058;25.586;2022-11-18T02:01:14;104.50;;;25.60;;
7831;SDS011;3961;42.058;25.586;2022-11-18T02:03:39;52.70;;;24.80;;
7831;SDS011;3961;42.058;25.586;2022-11-18T02:06:06;111.23;;;26.63;;
7831;SDS011;3961;42.058;25.586;2022-11-18T02:08:34;84.87;;;25.87;;
7831;SDS011;3961;42.058;25.586;2022-11-18T02:11:02;154.43;;;27.83;;
7831;SDS011;3961;42.058;25.586;2022-11-18T02:13:28;137.20;;;27.83;;
7831;SDS011;3961;42.058;25.586;2022-11-18T02:16:03;249.33;;;30.47;;
7831;SDS011;3961;42.058;25.586;2022-11-18T02:18:38;94.67;;;27.60;;
7831;SDS011;3961;42.058;25.586;2022-11-18T02:26:59;196.70;;;28.73;;
7831;SDS011;3961;42.058;25.586;2022-11-18T02:29:35;144.77;;;27.20;;
7831;SDS011;3961;42.058;25.586;2022-11-18T02:32:22;211.60;;;28.33;;
7831;SDS011;3961;42.058;25.586;2022-11-18T02:35:07;86.20;;;26.03;;
7831;SDS011;3961;42.058;25.586;2022-11-18T02:37:44;120.80;;;26.93;;
7831;SDS011;3961;42.058;25.586;2022-11-18T02:40:20;233.37;;;30.07;;
7831;SDS011;3961;42.058;25.586;2022-11-18T02:42:51;169.27;;;28.30;;
7831;SDS011;3961;42.058;25.586;2022-11-18T02:45:23;166.57;;;26.70;;
7831;SDS011;3961;42.058;25.586;2022-11-18T02:47:51;117.17;;;26.73;;
7831;SDS011;3961;42.058;25.586;2022-11-18T02:50:22;165.63;;;28.60;;
7831;SDS011;3961;42.058;25.586;2022-11-18T02:52:55;77.37;;;26.70;;
7831;SDS011;3961;42.058;25.586;2022-11-18T02:55:24;61.40;;;25.03;;
7831;SDS011;3961;42.058;25.586;2022-11-18T02:57:54;79.67;;;25.40;;
7831;SDS011;3961;42.058;25.586;2022-11-18T03:00:22;72.83;;;25.67;;
7831;SDS011;3961;42.058;25.586;2022-11-18T03:02:48;67.73;;;25.67;;
7831;SDS011;3961;42.058;25.586;2022-11-18T03:05:16;106.60;;;27.07;;
7831;SDS011;3961;42.058;25.586;2022-11-18T03:07:43;88.63;;;25.60;;
7831;SDS011;3961;42.058;25.586;2022-11-18T03:10:14;87.00;;;26.93;;
7831;SDS011;3961;42.058;25.586;2022-11-18T03:18:12;103.50;;;27.90;;
7831;SDS011;3961;42.058;25.586;2022-11-18T03:23:21;120.33;;;26.93;;
7831;SDS011;3961;42.058;25.586;2022-11-18T03:26:11;126.70;;;26.37;;
7831;SDS011;3961;42.058;25.586;2022-11-18T03:31:36;123.60;;;26.87;;
7831;SDS011;3961;42.058;25.586;2022-11-18T03:34:10;79.13;;;26.13;;
7831;SDS011;3961;42.058;25.586;2022-11-18T03:36:44;127.70;;;27.07;;
7831;SDS011;3961;42.058;25.586;2022-11-18T03:39:13;100.13;;;27.50;;
7831;SDS011;3961;42.058;25.586;2022-11-18T03:41:43;105.70;;;29.20;;
7831;SDS011;3961;42.058;25.586;2022-11-18T03:44:16;114.03;;;29.97;;
7831;SDS011;3961;42.058;25.586;2022-11-18T03:46:58;83.17;;;28.53;;
7831;SDS011;3961;42.058;25.586;2022-11-18T03:49:30;91.93;;;28.70;;
7831;SDS011;3961;42.058;25.586;2022-11-18T03:52:09;94.93;;;27.67;;
7831;SDS011;3961;42.058;25.586;2022-11-18T03:54:38;147.37;;;28.07;;
7831;SDS011;3961;42.058;25.586;2022-11-18T03:57:18;108.57;;;25.70;;
7831;SDS011;3961;42.058;25.586;2022-11-18T04:00:01;78.37;;;26.53;;
7831;SDS011;3961;42.058;25.586;2022-11-18T04:02:32;153.73;;;26.67;;
7831;SDS011;3961;42.058;25.586;2022-11-18T04:04:58;106.80;;;25.63;;
7831;SDS011;3961;42.058;25.586;2022-11-18T04:07:29;191.57;;;28.43;;
7831;SDS011;3961;42.058;25.586;2022-11-18T04:10:01;139.03;;;25.10;;
7831;SDS011;3961;42.058;25.586;2022-11-18T04:12:34;150.97;;;26.97;;
7831;SDS011;3961;42.058;25.586;2022-11-18T04:15:08;59.23;;;23.60;;
7831;SDS011;3961;42.058;25.586;2022-11-18T04:17:34;142.60;;;27.03;;
7831;SDS011;3961;42.058;25.586;2022-11-18T04:20:00;70.37;;;25.17;;
7831;SDS011;3961;42.058;25.586;2022-11-18T04:22:25;101.33;;;25.67;;
7831;SDS011;3961;42.058;25.586;2022-11-18T04:24:51;72.37;;;23.57;;
7831;SDS011;3961;42.058;25.586;2022-11-18T04:27:16;50.63;;;23.27;;
7831;SDS011;3961;42.058;25.586;2022-11-18T04:29:42;94.13;;;25.97;;
7831;SDS011;3961;42.058;25.586;2022-11-18T04:32:08;111.20;;;25.73;;
7831;SDS011;3961;42.058;25.586;2022-11-18T04:34:33;57.93;;;24.93;;
7831;SDS011;3961;42.058;25.586;2022-11-18T04:36:59;62.57;;;23.77;;
7831;SDS011;3961;42.058;25.586;2022-11-18T04:39:24;54.40;;;22.80;;
7831;SDS011;3961;42.058;25.586;2022-11-18T04:41:50;44.53;;;25.63;;
7831;SDS011;3961;42.058;25.586;2022-11-18T04:44:28;66.50;;;25.33;;
7831;SDS011;3961;42.058;25.586;2022-11-18T04:46:55;78.57;;;26.43;;
7831;SDS011;3961;42.058;25.586;2022-11-18T04:49:22;65.00;;;24.80;;
7831;SDS011;3961;42.058;25.586;2022-11-18T04:51:48;61.07;;;25.50;;
7831;SDS011;3961;42.058;25.586;2022-11-18T04:54:15;90.67;;;24.53;;
7831;SDS011;3961;42.058;25.586;2022-11-18T04:56:41;52.87;;;21.33;;
7831;SDS011;3961;42.058;25.586;2022-11-18T04:59:07;73.43;;;23.10;;
7831;SDS011;3961;42.058;25.586;2022-11-18T05:01:33;86.43;;;22.87;;
7831;SDS011;3961;42.058;25.586;2022-11-18T05:03:59;184.30;;;25.77;;
7831;SDS011;3961;42.058;25.586;2022-11-18T05:06:26;157.93;;;25.27;;
7831;SDS011;3961;42.058;25.586;2022-11-18T05:08:52;118.13;;;23.30;;
7831;SDS011;3961;42.058;25.586;2022-11-18T05:11:18;124.13;;;25.00;;
7831;SDS011;3961;42.058;25.586;2022-11-18T05:14:02;123.30;;;24.60;;
7831;SDS011;3961;42.058;25.586;2022-11-18T05:16:27;159.43;;;27.23;;
7831;SDS011;3961;42.058;25.586;2022-11-18T05:18:53;268.67;;;29.47;;
7831;SDS011;3961;42.058;25.586;2022-11-18T05:21:18;139.33;;;27.73;;
7831;SDS011;3961;42.058;25.586;2022-11-18T05:23:44;248.13;;;31.60;;
7831;SDS011;3961;42.058;25.586;2022-11-18T05:26:09;220.83;;;32.47;;
7831;SDS011;3961;42.058;25.586;2022-11-18T05:28:36;151.83;;;29.90;;
7831;SDS011;3961;42.058;25.586;2022-11-18T05:31:08;125.20;;;27.17;;
7831;SDS011;3961;42.058;25.586;2022-11-18T05:33:35;105.67;;;26.57;;
7831;SDS011;3961;42.058;25.586;2022-11-18T05:36:02;80.33;;;25.80;;
7831;SDS011;3961;42.058;25.586;2022-11-18T05:38:38;256.07;;;29.37;;
7831;SDS011;3961;42.058;25.586;2022-11-18T05:41:04;181.90;;;26.30;;
7831;SDS011;3961;42.058;25.586;2022-11-18T05:43:30;247.33;;;28.53;;
7831;SDS011;3961;42.058;25.586;2022-11-18T05:45:57;133.83;;;26.30;;
7831;SDS011;3961;42.058;25.586;2022-11-18T05:48:23;104.30;;;26.00;;
7831;SDS011;3961;42.058;25.586;2022-11-18T05:50:50;236.83;;;30.37;;
7831;SDS011;3961;42.058;25.586;2022-11-18T05:53:18;260.57;;;30.03;;
7831;SDS011;3961;42.058;25.586;2022-11-18T05:58:29;99.97;;;26.37;;
7831;SDS011;3961;42.058;25.586;2022-11-18T06:00:54;124.90;;;27.23;;
7831;SDS011;3961;42.058;25.586;2022-11-18T06:03:25;178.73;;;30.57;;
7831;SDS011;3961;42.058;25.586;2022-11-18T06:05:53;157.23;;;28.67;;
7831;SDS011;3961;42.058;25.586;2022-11-18T06:08:21;106.37;;;24.67;;
7831;SDS011;3961;42.058;25.586;2022-11-18T06:10:51;111.57;;;26.13;;
7831;SDS011;3961;42.058;25.586;2022-11-18T06:13:22;111.63;;;26.20;;
7831;SDS011;3961;42.058;25.586;2022-11-18T06:15:54;122.23;;;25.73;;
7831;SDS011;3961;42.058;25.586;2022-11-18T06:18:27;158.37;;;25.60;;
7831;SDS011;3961;42.058;25.586;2022-11-18T06:21:00;133.53;;;24.23;;
7831;SDS011;3961;42.058;25.586;2022-11-18T06:23:28;72.43;;;22.67;;
7831;SDS011;3961;42.058;25.586;2022-11-18T06:25:58;131.47;;;23.67;;
7831;SDS011;3961;42.058;25.586;2022-11-18T06:28:24;82.93;;;24.60;;
7831;SDS011;3961;42.058;25.586;2022-11-18T06:30:51;137.53;;;24.47;;
7831;SDS011;3961;42.058;25.586;2022-11-18T06:33:16;123.80;;;26.33;;
7831;SDS011;3961;42.058;25.586;2022-11-18T06:35:42;87.03;;;24.40;;
7831;SDS011;3961;42.058;25.586;2022-11-18T06:38:08;85.93;;;24.10;;
7831;SDS011;3961;42.058;25.586;2022-11-18T06:40:33;92.60;;;24.07;;
7831;SDS011;3961;42.058;25.586;2022-11-18T06:43:07;109.33;;;24.23;;
7831;SDS011;3961;42.058;25.586;2022-11-18T06:45:52;91.80;;;22.10;;
7831;SDS011;3961;42.058;25.586;2022-11-18T06:48:36;56.40;;;23.40;;
7831;SDS011;3961;42.058;25.586;2022-11-18T06:51:05;61.27;;;24.20;;
7831;SDS011;3961;42.058;25.586;2022-11-18T06:53:32;76.57;;;25.33;;
7831;SDS011;3961;42.058;25.586;2022-11-18T06:56:01;71.93;;;23.73;;
7831;SDS011;3961;42.058;25.586;2022-11-18T06:58:31;80.77;;;39.43;;
7831;SDS011;3961;42.058;25.586;2022-11-18T07:00:56;64.37;;;38.93;;
7831;SDS011;3961;42.058;25.586;2022-11-18T07:03:22;234.43;;;148.13;;
7831;SDS011;3961;42.058;25.586;2022-11-18T07:05:47;67.60;;;30.10;;
7831;SDS011;3961;42.058;25.586;2022-11-18T07:08:13;91.47;;;20.23;;
7831;SDS011;3961;42.058;25.586;2022-11-18T07:10:39;59.33;;;19.70;;
7831;SDS011;3961;42.058;25.586;2022-11-18T07:13:04;106.00;;;20.97;;
7831;SDS011;3961;42.058;25.586;2022-11-18T07:15:30;114.93;;;23.23;;
7831;SDS011;3961;42.058;25.586;2022-11-18T07:17:55;95.33;;;21.87;;
7831;SDS011;3961;42.058;25.586;2022-11-18T07:20:21;229.30;;;122.27;;
7831;SDS011;3961;42.058;25.586;2022-11-18T07:22:46;141.53;;;43.77;;
7831;SDS011;3961;42.058;25.586;2022-11-18T07:25:12;148.20;;;56.27;;
7831;SDS011;3961;42.058;25.586;2022-11-18T07:27:37;92.23;;;25.47;;
7831;SDS011;3961;42.058;25.586;2022-11-18T07:30:03;78.37;;;23.80;;
7831;SDS011;3961;42.058;25.586;2022-11-18T07:32:31;72.90;;;20.77;;
7831;SDS011;3961;42.058;25.586;2022-11-18T07:34:58;48.40;;;20.50;;
7831;SDS011;3961;42.058;25.586;2022-11-18T07:37:24;50.30;;;22.97;;
7831;SDS011;3961;42.058;25.586;2022-11-18T07:39:49;46.07;;;20.87;;
7831;SDS011;3961;42.058;25.586;2022-11-18T07:42:15;71.60;;;23.37;;
7831;SDS011;3961;42.058;25.586;2022-11-18T07:44:40;50.47;;;21.50;;
7831;SDS011;3961;42.058;25.586;2022-11-18T07:47:06;84.57;;;23.53;;
7831;SDS011;3961;42.058;25.586;2022-11-18T07:49:31;57.40;;;20.20;;
7831;SDS011;3961;42.058;25.586;2022-11-18T07:51:57;52.93;;;20.37;;
7831;SDS011;3961;42.058;25.586;2022-11-18T07:54:22;42.10;;;19.70;;
7831;SDS011;3961;42.058;25.586;2022-11-18T07:56:48;52.40;;;17.17;;
7831;SDS011;3961;42.058;25.586;2022-11-18T07:59:14;43.47;;;17.00;;
7831;SDS011;3961;42.058;25.586;2022-11-18T08:01:39;66.10;;;24.10;;
7831;SDS011;3961;42.058;25.586;2022-11-18T08:04:08;47.23;;;25.07;;
7831;SDS011;3961;42.058;25.586;2022-11-18T08:06:36;52.17;;;19.63;;
7831;SDS011;3961;42.058;25.586;2022-11-18T08:09:03;38.70;;;18.70;;
7831;SDS011;3961;42.058;25.586;2022-11-18T08:11:30;68.43;;;19.43;;
7831;SDS011;3961;42.058;25.586;2022-11-18T08:13:55;68.53;;;19.70;;
7831;SDS011;3961;42.058;25.586;2022-11-18T08:16:22;83.53;;;20.27;;
7831;SDS011;3961;42.058;25.586;2022-11-18T08:18:49;71.43;;;21.77;;
7831;SDS011;3961;42.058;25.586;2022-11-18T08:21:16;37.00;;;21.50;;
7831;SDS011;3961;42.058;25.586;2022-11-18T08:23:43;40.57;;;23.77;;
7831;SDS011;3961;42.058;25.586;2022-11-18T08:26:14;62.83;;;22.57;;
7831;SDS011;3961;42.058;25.586;2022-11-18T08:28:40;50.53;;;22.30;;
7831;SDS011;3961;42.058;25.586;2022-11-18T08:31:08;60.00;;;25.27;;
7831;SDS011;3961;42.058;25.586;2022-11-18T08:33:52;68.80;;;25.60;;
7831;SDS011;3961;42.058;25.586;2022-11-18T08:36:23;42.23;;;24.23;;
7831;SDS011;3961;42.058;25.586;2022-11-18T08:38:51;56.43;;;28.13;;
7831;SDS011;3961;42.058;25.586;2022-11-18T08:41:38;74.83;;;24.83;;
7831;SDS011;3961;42.058;25.586;2022-11-18T08:44:03;46.43;;;22.57;;
7831;SDS011;3961;42.058;25.586;2022-11-18T08:46:30;53.57;;;24.00;;
7831;SDS011;3961;42.058;25.586;2022-11-18T08:48:56;96.60;;;26.77;;
7831;SDS011;3961;42.058;25.586;2022-11-18T08:51:22;78.93;;;26.00;;
7831;SDS011;3961;42.058;25.586;2022-11-18T08:53:48;112.33;;;25.97;;
7831;SDS011;3961;42.058;25.586;2022-11-18T08:56:17;46.40;;;23.93;;
7831;SDS011;3961;42.058;25.586;2022-11-18T08:58:44;49.73;;;23.93;;
7831;SDS011;3961;42.058;25.586;2022-11-18T09:01:10;60.57;;;23.97;;
7831;SDS011;3961;42.058;25.586;2022-11-18T09:03:36;91.37;;;27.23;;
7831;SDS011;3961;42.058;25.586;2022-11-18T09:08:30;46.90;;;26.87;;
7831;SDS011;3961;42.058;25.586;2022-11-18T09:10:56;58.07;;;26.37;;
7831;SDS011;3961;42.058;25.586;2022-11-18T09:13:22;43.80;;;23.97;;
7831;SDS011;3961;42.058;25.586;2022-11-18T09:15:48;63.97;;;26.87;;
7831;SDS011;3961;42.058;25.586;2022-11-18T09:18:14;165.77;;;91.43;;
7831;SDS011;3961;42.058;25.586;2022-11-18T09:20:39;92.50;;;29.67;;
7831;SDS011;3961;42.058;25.586;2022-11-18T09:23:05;75.80;;;28.90;;
7831;SDS011;3961;42.058;25.586;2022-11-18T09:25:30;65.33;;;27.33;;
7831;SDS011;3961;42.058;25.586;2022-11-18T09:27:56;84.57;;;27.20;;
7831;SDS011;3961;42.058;25.586;2022-11-18T09:30:21;51.40;;;25.30;;
7831;SDS011;3961;42.058;25.586;2022-11-18T09:32:47;57.10;;;26.87;;
7831;SDS011;3961;42.058;25.586;2022-11-18T09:35:14;57.80;;;25.60;;
7831;SDS011;3961;42.058;25.586;2022-11-18T09:37:40;45.33;;;26.83;;
7831;SDS011;3961;42.058;25.586;2022-11-18T09:40:05;50.47;;;27.53;;
7831;SDS011;3961;42.058;25.586;2022-11-18T09:45:24;59.93;;;26.67;;
7831;SDS011;3961;42.058;25.586;2022-11-18T09:47:57;67.30;;;27.57;;
7831;SDS011;3961;42.058;25.586;2022-11-18T09:50:27;85.70;;;28.17;;
7831;SDS011;3961;42.058;25.586;2022-11-18T09:55:44;69.37;;;27.80;;
7831;SDS011;3961;42.058;25.586;2022-11-18T09:58:22;51.37;;;28.33;;
7831;SDS011;3961;42.058;25.586;2022-11-18T10:00:55;47.00;;;26.43;;
7831;SDS011;3961;42.058;25.586;2022-11-18T10:03:25;53.13;;;27.73;;
7831;SDS011;3961;42.058;25.586;2022-11-18T10:11:48;47.63;;;27.93;;
7831;SDS011;3961;42.058;25.586;2022-11-18T10:25:12;78.97;;;30.37;;
7831;SDS011;3961;42.058;25.586;2022-11-18T10:27:41;70.70;;;31.10;;
7831;SDS011;3961;42.058;25.586;2022-11-18T10:30:12;59.43;;;29.47;;
7831;SDS011;3961;42.058;25.586;2022-11-18T10:32:56;85.30;;;29.33;;
7831;SDS011;3961;42.058;25.586;2022-11-18T10:35:25;86.67;;;29.20;;
7831;SDS011;3961;42.058;25.586;2022-11-18T10:40:43;75.13;;;33.73;;
7831;SDS011;3961;42.058;25.586;2022-11-18T10:48:44;62.20;;;33.33;;
7831;SDS011;3961;42.058;25.586;2022-11-18T10:51:22;73.20;;;35.33;;
7831;SDS011;3961;42.058;25.586;2022-11-18T10:53:49;60.30;;;32.17;;
7831;SDS011;3961;42.058;25.586;2022-11-18T10:56:15;60.33;;;31.27;;
7831;SDS011;3961;42.058;25.586;2022-11-18T10:58:42;64.83;;;32.17;;
7831;SDS011;3961;42.058;25.586;2022-11-18T11:01:23;65.33;;;32.17;;
7831;SDS011;3961;42.058;25.586;2022-11-18T11:08:56;55.47;;;30.33;;
7831;SDS011;3961;42.058;25.586;2022-11-18T11:11:28;54.30;;;28.47;;
7831;SDS011;3961;42.058;25.586;2022-11-18T11:19:22;55.77;;;30.13;;
7831;SDS011;3961;42.058;25.586;2022-11-18T11:21:51;58.70;;;29.93;;
7831;SDS011;3961;42.058;25.586;2022-11-18T11:24:17;62.03;;;30.90;;
7831;SDS011;3961;42.058;25.586;2022-11-18T11:29:16;58.77;;;29.77;;
7831;SDS011;3961;42.058;25.586;2022-11-18T11:34:50;62.47;;;31.23;;
7831;SDS011;3961;42.058;25.586;2022-11-18T11:40:32;50.23;;;29.73;;
7831;SDS011;3961;42.058;25.586;2022-11-18T11:51:05;94.90;;;38.43;;
7831;SDS011;3961;42.058;25.586;2022-11-18T12:01:43;116.47;;;39.93;;
7831;SDS011;3961;42.058;25.586;2022-11-18T12:06:52;124.83;;;42.60;;
7831;SDS011;3961;42.058;25.586;2022-11-18T12:09:44;139.50;;;43.20;;
7831;SDS011;3961;42.058;25.586;2022-11-18T12:23:12;208.73;;;60.43;;
7831;SDS011;3961;42.058;25.586;2022-11-18T12:28:08;243.57;;;64.07;;
7831;SDS011;3961;42.058;25.586;2022-11-18T12:30:34;294.93;;;74.63;;
7831;SDS011;3961;42.058;25.586;2022-11-18T12:32:59;366.00;;;101.93;;
7831;SDS011;3961;42.058;25.586;2022-11-18T12:35:28;286.50;;;77.37;;
7831;SDS011;3961;42.058;25.586;2022-11-18T12:37:56;336.40;;;89.37;;
7831;SDS011;3961;42.058;25.586;2022-11-18T12:40:37;266.60;;;79.73;;
7831;SDS011;3961;42.058;25.586;2022-11-18T12:44:05;209.33;;;67.70;;
7831;SDS011;3961;42.058;25.586;2022-11-18T12:46:08;123.20;;;47.73;;
7831;SDS011;3961;42.058;25.586;2022-11-18T12:48:36;62.43;;;35.47;;
7831;SDS011;3961;42.058;25.586;2022-11-18T12:51:36;67.03;;;38.13;;
7831;SDS011;3961;42.058;25.586;2022-11-18T12:54:02;120.60;;;72.57;;
7831;SDS011;3961;42.058;25.586;2022-11-18T12:56:46;52.07;;;33.53;;
7831;SDS011;3961;42.058;25.586;2022-11-18T12:59:13;50.57;;;34.60;;
7831;SDS011;3961;42.058;25.586;2022-11-18T13:01:39;45.27;;;32.30;;
7831;SDS011;3961;42.058;25.586;2022-11-18T13:04:06;46.73;;;32.50;;
7831;SDS011;3961;42.058;25.586;2022-11-18T13:06:32;52.90;;;35.40;;
7831;SDS011;3961;42.058;25.586;2022-11-18T13:09:00;54.40;;;35.13;;
7831;SDS011;3961;42.058;25.586;2022-11-18T13:11:27;50.33;;;34.17;;
7831;SDS011;3961;42.058;25.586;2022-11-18T13:14:44;59.20;;;37.37;;
7831;SDS011;3961;42.058;25.586;2022-11-18T13:22:51;55.13;;;35.43;;
7831;SDS011;3961;42.058;25.586;2022-11-18T13:25:39;56.27;;;35.80;;
7831;SDS011;3961;42.058;25.586;2022-11-18T13:31:01;56.23;;;36.83;;
7831;SDS011;3961;42.058;25.586;2022-11-18T13:33:41;59.87;;;35.53;;
7831;SDS011;3961;42.058;25.586;2022-11-18T13:36:21;74.23;;;38.47;;
7831;SDS011;3961;42.058;25.586;2022-11-18T13:38:58;83.97;;;42.00;;
7831;SDS011;3961;42.058;25.586;2022-11-18T13:41:25;82.00;;;41.87;;
7831;SDS011;3961;42.058;25.586;2022-11-18T13:46:47;58.43;;;36.07;;
7831;SDS011;3961;42.058;25.586;2022-11-18T14:02:07;52.07;;;34.40;;
7831;SDS011;3961;42.058;25.586;2022-11-18T14:15:21;54.03;;;35.87;;
7831;SDS011;3961;42.058;25.586;2022-11-18T14:17:59;53.00;;;34.00;;
7831;SDS011;3961;42.058;25.586;2022-11-18T14:20:27;62.83;;;36.77;;
7831;SDS011;3961;42.058;25.586;2022-11-18T14:23:00;68.07;;;36.97;;
7831;SDS011;3961;42.058;25.586;2022-11-18T14:25:29;56.63;;;35.30;;
7831;SDS011;3961;42.058;25.586;2022-11-18T14:28:41;71.93;;;39.07;;
7831;SDS011;3961;42.058;25.586;2022-11-18T14:30:54;68.40;;;36.97;;
7831;SDS011;3961;42.058;25.586;2022-11-18T14:33:21;70.03;;;38.47;;
7831;SDS011;3961;42.058;25.586;2022-11-18T14:38:29;69.40;;;37.90;;
7831;SDS011;3961;42.058;25.586;2022-11-18T14:40:59;73.53;;;40.03;;
7831;SDS011;3961;42.058;25.586;2022-11-18T14:43:27;97.13;;;43.07;;
7831;SDS011;3961;42.058;25.586;2022-11-18T14:45:54;93.20;;;44.40;;
7831;SDS011;3961;42.058;25.586;2022-11-18T14:48:22;91.33;;;44.43;;
7831;SDS011;3961;42.058;25.586;2022-11-18T14:50:50;90.37;;;43.80;;
7831;SDS011;3961;42.058;25.586;2022-11-18T14:53:17;92.50;;;43.33;;
7831;SDS011;3961;42.058;25.586;2022-11-18T14:55:43;88.20;;;43.53;;
7831;SDS011;3961;42.058;25.586;2022-11-18T14:58:11;82.20;;;43.20;;
7831;SDS011;3961;42.058;25.586;2022-11-18T15:00:38;79.87;;;41.13;;
7831;SDS011;3961;42.058;25.586;2022-11-18T15:03:05;76.07;;;41.10;;
7831;SDS011;3961;42.058;25.586;2022-11-18T15:05:30;99.57;;;41.40;;
7831;SDS011;3961;42.058;25.586;2022-11-18T15:07:56;92.57;;;41.13;;
7831;SDS011;3961;42.058;25.586;2022-11-18T15:10:21;99.10;;;42.77;;
7831;SDS011;3961;42.058;25.586;2022-11-18T15:12:47;83.50;;;40.10;;
7831;SDS011;3961;42.058;25.586;2022-11-18T15:15:12;78.07;;;39.63;;
7831;SDS011;3961;42.058;25.586;2022-11-18T15:17:38;84.80;;;40.07;;
7831;SDS011;3961;42.058;25.586;2022-11-18T15:20:04;67.20;;;37.07;;
7831;SDS011;3961;42.058;25.586;2022-11-18T15:22:31;77.30;;;39.50;;
7831;SDS011;3961;42.058;25.586;2022-11-18T15:24:58;72.43;;;37.57;;
7831;SDS011;3961;42.058;25.586;2022-11-18T15:27:23;71.90;;;38.20;;
7831;SDS011;3961;42.058;25.586;2022-11-18T15:29:49;72.77;;;37.23;;
7831;SDS011;3961;42.058;25.586;2022-11-18T15:32:15;72.60;;;38.93;;
7831;SDS011;3961;42.058;25.586;2022-11-18T15:34:40;70.23;;;39.80;;
7831;SDS011;3961;42.058;25.586;2022-11-18T15:37:08;81.50;;;40.23;;
7831;SDS011;3961;42.058;25.586;2022-11-18T15:39:36;70.80;;;39.73;;
7831;SDS011;3961;42.058;25.586;2022-11-18T15:42:01;80.93;;;41.23;;
7831;SDS011;3961;42.058;25.586;2022-11-18T15:44:27;81.10;;;41.43;;
7831;SDS011;3961;42.058;25.586;2022-11-18T15:46:52;89.43;;;41.57;;
7831;SDS011;3961;42.058;25.586;2022-11-18T15:49:19;86.97;;;41.40;;
7831;SDS011;3961;42.058;25.586;2022-11-18T15:51:45;90.80;;;43.60;;
7831;SDS011;3961;42.058;25.586;2022-11-18T15:54:10;102.03;;;46.13;;
7831;SDS011;3961;42.058;25.586;2022-11-18T15:56:38;89.43;;;43.10;;
7831;SDS011;3961;42.058;25.586;2022-11-18T15:59:07;101.60;;;45.10;;
7831;SDS011;3961;42.058;25.586;2022-11-18T16:01:35;91.73;;;43.17;;
7831;SDS011;3961;42.058;25.586;2022-11-18T16:04:03;92.60;;;45.30;;
7831;SDS011;3961;42.058;25.586;2022-11-18T16:06:30;91.57;;;41.40;;
7831;SDS011;3961;42.058;25.586;2022-11-18T16:08:56;83.47;;;42.70;;
7831;SDS011;3961;42.058;25.586;2022-11-18T16:11:21;89.47;;;42.87;;
7831;SDS011;3961;42.058;25.586;2022-11-18T16:14:07;93.37;;;42.40;;
7831;SDS011;3961;42.058;25.586;2022-11-18T16:16:34;100.43;;;44.50;;
7831;SDS011;3961;42.058;25.586;2022-11-18T16:19:01;96.10;;;43.93;;
7831;SDS011;3961;42.058;25.586;2022-11-18T16:21:30;102.60;;;44.03;;
7831;SDS011;3961;42.058;25.586;2022-11-18T16:23:58;115.30;;;47.10;;
7831;SDS011;3961;42.058;25.586;2022-11-18T16:26:25;112.17;;;44.50;;
7831;SDS011;3961;42.058;25.586;2022-11-18T16:28:51;112.60;;;44.70;;
7831;SDS011;3961;42.058;25.586;2022-11-18T16:31:18;104.40;;;46.50;;
7831;SDS011;3961;42.058;25.586;2022-11-18T16:34:19;117.17;;;47.97;;
7831;SDS011;3961;42.058;25.586;2022-11-18T16:36:52;103.93;;;45.77;;
7831;SDS011;3961;42.058;25.586;2022-11-18T16:39:20;117.20;;;45.07;;
7831;SDS011;3961;42.058;25.586;2022-11-18T16:41:49;130.93;;;46.70;;
7831;SDS011;3961;42.058;25.586;2022-11-18T16:44:19;143.80;;;49.00;;
7831;SDS011;3961;42.058;25.586;2022-11-18T16:46:46;142.10;;;47.47;;
7831;SDS011;3961;42.058;25.586;2022-11-18T16:49:30;143.53;;;47.30;;
7831;SDS011;3961;42.058;25.586;2022-11-18T16:51:55;133.77;;;46.67;;
7831;SDS011;3961;42.058;25.586;2022-11-18T16:54:25;161.17;;;51.07;;
7831;SDS011;3961;42.058;25.586;2022-11-18T16:56:52;149.23;;;50.57;;
7831;SDS011;3961;42.058;25.586;2022-11-18T16:59:23;216.00;;;53.80;;
7831;SDS011;3961;42.058;25.586;2022-11-18T17:01:53;183.33;;;54.07;;
7831;SDS011;3961;42.058;25.586;2022-11-18T17:04:21;189.73;;;51.47;;
7831;SDS011;3961;42.058;25.586;2022-11-18T17:06:48;178.60;;;55.40;;
7831;SDS011;3961;42.058;25.586;2022-11-18T17:09:18;189.50;;;54.97;;